Warning: Javascript must be enabled to use all the features on this page!


Page Loading - Please Wait...

Click to hideNews Bulletins

Peak Streamflow for the Nation

USGS 11173200 ARROYO HONDO NR SAN JOSE CA

Santa Clara County, California
Hydrologic Unit Code 18050004
Latitude  37°27'42", Longitude 121°46'06" NAD27
Drainage area 77.1  square miles
Gage datum 783.86 feet above NGVD29
Output formats
Table
Graph
Tab-separated file
peakfq (watstore) format
Reselect output format
Water
Year
Date Gage
Height
(feet)
Stream-
flow
(cfs)
1969 1969-01-26 10.94 4,620
1970 1970-03-01 9.61 2,970
1971 1970-12-02 8.84 2,210
1972 1971-12-25 6.57 672
1973 1973-02-07 9.75 3,130
1974 1974-04-01 9.92 3,310
1975 1975-02-02 10.28 3,750
1976 1976-03-01 4.15 41.0
1977 1977-01-03 4.57 87.0
1978 1978-03-05 9.87 3,260
1979 1979-02-22 8.65 2,030
1980 1980-02-19 12.36 6,600
1981 1981-01-29 10.66 4,160
1995 1995-03-22 14.84 7,020
1996 1996-01-25 13.90 5,750
1997 1997-01-22 14.97 7,210
1998 1998-02-03 15.85 7,340
1999 1999-02-09 12.29 3,860
2000 2000-02-13 13.97 5,840
2001 2001-03-05 9.10 1,480
2002 2001-12-21 8.11 843
2003 2002-12-16 13.69 5,160
2004 2004-02-25 10.27 2,360
2005 2004-12-31 12.75 4,300
2006 2006-04-04 10.69 2,660
2007 2007-02-26 9.27 1,680
2008 2008-02-24 10.84 2,760
2009 2009-03-04 11.52 3,430
2010 2010-01-20 10.88 2,960
2011 2011-03-24 13.65 5,190
2012 2012-04-13 9.04 1,720
2013 2012-12-02 13.08 4,680
2014 2014-02-28 6.63 416
2015 2014-12-12 9.59 2,030
2016 2016-03-13 11.22 3,230
2017 2017-01-10 15.83 7,480
2018 2018-03-22 8.36 1,160
2019 2019-01-17 11.77 4,200